Time;durP1;ratioP1;P1;durP2;ratioP2;P2;SDS_P1;SDS_P2;PMS_P1;PMS_P2;Temp;Humidity;BMP_temperature;BMP_pressure;BME280_temperature;BME280_humidity;BME280_pressure;Samples;Min_cycle;Max_cycle;Signal;HPM_P1;HPM_P2
2023/01/27 00:02:20;;;;;;;25.88;19.98;;;;;;;-3.78;100.00;95942.03;5079306;28;24475;-72
2023/01/27 00:04:46;;;;;;;23.83;18.40;;;;;;;-3.60;100.00;95943.63;5098051;28;24434;-71
2023/01/27 00:07:13;;;;;;;29.02;20.02;;;;;;;-3.67;100.00;95948.75;5092001;28;24457;-71
2023/01/27 00:09:40;;;;;;;24.17;19.77;;;;;;;-3.64;100.00;95940.28;5103059;28;24918;-71
2023/01/27 00:14:51;;;;;;;24.87;18.50;;;;;;;-3.57;100.00;95941.94;5106646;28;24429;-71
2023/01/27 00:17:19;;;;;;;23.80;18.58;;;;;;;-3.18;100.00;95947.63;5095831;28;24450;-71
2023/01/27 00:19:45;;;;;;;25.10;19.25;;;;;;;-2.96;100.00;95938.19;5097979;28;24437;-71
2023/01/27 00:25:01;;;;;;;21.65;17.85;;;;;;;-3.02;100.00;95946.66;5027933;28;24521;-71
2023/01/27 00:27:28;;;;;;;23.27;18.67;;;;;;;-2.88;100.00;95946.56;5098279;28;24440;-71
2023/01/27 00:29:54;;;;;;;22.90;18.40;;;;;;;-3.01;100.00;95938.19;5107070;28;24458;-71
2023/01/27 00:35:07;;;;;;;25.42;19.80;;;;;;;-3.13;100.00;95940.84;5100332;28;24474;-71
2023/01/27 00:37:33;;;;;;;25.83;19.90;;;;;;;-3.12;100.00;95927.31;5106102;28;24429;-71
2023/01/27 00:40:00;;;;;;;28.75;19.13;;;;;;;-3.21;100.00;95937.50;5094336;28;24784;-71
2023/01/27 00:42:26;;;;;;;26.52;19.00;;;;;;;-3.13;100.00;95935.75;5100934;28;24439;-71
2023/01/27 00:47:38;;;;;;;24.25;18.25;;;;;;;-2.87;100.00;95943.19;5100103;28;24455;-71
2023/01/27 00:50:06;;;;;;;22.33;18.38;;;;;;;-2.76;100.00;95945.63;5093074;28;25009;-72
2023/01/27 00:52:32;;;;;;;28.60;18.87;;;;;;;-2.88;100.00;95951.63;5097427;28;24438;-72
2023/01/27 00:54:58;;;;;;;27.08;18.98;;;;;;;-3.06;100.00;95939.94;5097501;28;24438;-71
2023/01/27 00:57:25;;;;;;;24.75;18.25;;;;;;;-3.11;100.00;95946.75;5099597;28;24476;-71
2023/01/27 00:59:52;;;;;;;21.02;17.73;;;;;;;-3.09;100.00;95939.13;5100408;28;25060;-71
2023/01/27 01:02:18;;;;;;;21.35;17.80;;;;;;;-3.46;100.00;95942.72;5090930;28;24457;-71
2023/01/27 01:04:46;;;;;;;22.77;17.80;;;;;;;-3.67;100.00;95936.09;5100817;28;24446;-71
2023/01/27 01:07:13;;;;;;;24.38;17.98;;;;;;;-3.82;100.00;95932.78;5089768;28;24440;-72
2023/01/27 01:09:39;;;;;;;22.03;18.23;;;;;;;-3.89;100.00;95931.97;5092129;28;24879;-71
2023/01/27 01:12:06;;;;;;;27.30;20.05;;;;;;;-3.77;100.00;95928.56;5100665;28;24516;-73
2023/01/27 01:14:32;;;;;;;25.48;18.92;;;;;;;-3.70;100.00;95933.56;5095214;28;24438;-71
2023/01/27 01:16:58;;;;;;;25.35;18.92;;;;;;;-3.69;100.00;95935.25;5096887;28;24438;-71
2023/01/27 01:19:25;;;;;;;24.35;18.90;;;;;;;-3.84;100.00;95937.00;5090900;28;24434;-71
2023/01/27 01:21:53;;;;;;;26.30;18.85;;;;;;;-3.79;100.00;95938.66;5102710;28;25006;-71
2023/01/27 01:24:19;;;;;;;26.73;20.10;;;;;;;-3.81;100.00;95942.06;5101337;28;24445;-71
2023/01/27 01:26:46;;;;;;;26.35;20.40;;;;;;;-3.74;100.00;95942.03;5098157;28;24438;-71
2023/01/27 01:29:12;;;;;;;27.30;19.20;;;;;;;-3.38;100.00;95955.34;5097572;28;24800;-71
2023/01/27 01:31:39;;;;;;;26.30;18.05;;;;;;;-3.58;100.00;95945.31;5103634;28;24438;-72
2023/01/27 01:34:05;;;;;;;25.58;18.98;;;;;;;-3.49;100.00;95946.97;5106448;28;24438;-71
2023/01/27 01:36:32;;;;;;;29.13;19.20;;;;;;;-3.38;100.00;95944.38;5099695;28;24441;-72
2023/01/27 01:39:00;;;;;;;26.23;19.63;;;;;;;-3.33;100.00;95940.13;5091040;28;24900;-71
2023/01/27 01:41:26;;;;;;;22.73;19.25;;;;;;;-3.48;100.00;95936.84;5102380;28;24430;-71
2023/01/27 01:43:53;;;;;;;24.47;18.60;;;;;;;-3.23;100.00;95940.03;5106639;28;24441;-71
2023/01/27 01:46:21;;;;;;;21.98;18.25;;;;;;;-3.16;100.00;95936.63;5095978;28;24430;-71
2023/01/27 01:48:52;;;;;;;19.45;17.10;;;;;;;-3.16;100.00;95935.78;5096710;28;24435;-71
2023/01/27 01:51:22;;;;;;;22.92;17.85;;;;;;;-3.06;100.00;95939.94;5094820;28;24800;-72
2023/01/27 01:53:54;;;;;;;26.05;17.92;;;;;;;-3.14;100.00;95933.25;5105592;28;24461;-72
2023/01/27 01:56:26;;;;;;;24.15;18.60;;;;;;;-3.15;100.00;95934.97;5097803;28;24445;-71
2023/01/27 01:58:55;;;;;;;25.35;19.00;;;;;;;-3.22;100.00;95921.47;5103791;28;24469;-73
2023/01/27 02:01:22;;;;;;;20.43;17.70;;;;;;;-3.13;100.00;95917.19;5091891;28;24521;-71
2023/01/27 02:03:56;;;;;;;23.98;17.80;;;;;;;-3.24;100.00;95914.75;5088865;28;24450;-71
2023/01/27 02:06:23;;;;;;;24.50;17.52;;;;;;;-3.00;100.00;95911.19;5098499;28;24842;-71
2023/01/27 02:08:51;;;;;;;24.35;18.70;;;;;;;-2.85;100.00;95913.59;5096380;28;24438;-72
2023/01/27 02:11:18;;;;;;;26.08;17.65;;;;;;;-2.86;100.00;95926.28;5096848;28;24495;-71
2023/01/27 02:13:47;;;;;;;21.42;18.15;;;;;;;-2.72;100.00;95917.69;5090052;28;24450;-71
2023/01/27 02:16:13;;;;;;;22.10;18.47;;;;;;;-2.93;100.00;95923.81;5100239;28;24812;-72
2023/01/27 02:18:41;;;;;;;25.70;19.10;;;;;;;-2.93;100.00;95917.88;5099398;28;24438;-71
2023/01/27 02:21:08;;;;;;;23.05;18.98;;;;;;;-2.87;100.00;95920.38;5094863;28;24437;-71
2023/01/27 02:23:47;;;;;;;22.92;18.42;;;;;;;-3.05;100.00;95923.88;5091671;28;24445;-71
2023/01/27 02:26:19;;;;;;;20.80;17.60;;;;;;;-2.95;100.00;95917.91;5095201;28;24516;-71
2023/01/27 02:28:45;;;;;;;23.20;18.00;;;;;;;-2.99;100.00;95915.41;5100024;28;24799;-71
2023/01/27 02:31:12;;;;;;;21.98;17.65;;;;;;;-2.99;100.00;95917.94;5097937;28;24438;-73
2023/01/27 02:33:38;;;;;;;23.87;18.13;;;;;;;-3.12;100.00;95923.94;5100110;28;25013;-71
2023/01/27 02:36:09;;;;;;;25.65;17.92;;;;;;;-3.28;100.00;95921.50;5094137;28;24441;-71
2023/01/27 02:38:38;;;;;;;22.20;17.55;;;;;;;-3.28;100.00;95923.22;5087284;28;24439;-71
2023/01/27 02:41:09;;;;;;;23.05;16.10;;;;;;;-3.29;100.00;95919.84;5096243;28;24437;-71
2023/01/27 02:43:37;;;;;;;20.13;17.17;;;;;;;-3.32;100.00;95924.91;5097139;28;24980;-71
2023/01/27 02:46:04;;;;;;;22.90;18.40;;;;;;;-3.36;100.00;95918.19;5100261;28;24434;-71
2023/01/27 02:48:30;;;;;;;28.50;17.98;;;;;;;-3.56;100.00;95913.25;5090204;28;24834;-71
2023/01/27 02:50:57;;;;;;;23.65;17.77;;;;;;;-3.59;100.00;95917.50;5095277;28;24453;-71
2023/01/27 02:53:23;;;;;;;23.85;17.83;;;;;;;-3.58;100.00;95914.09;5101313;28;24437;-72
2023/01/27 02:55:50;;;;;;;24.55;18.95;;;;;;;-3.82;100.00;95910.88;5101879;28;24511;-72
2023/01/27 02:58:16;;;;;;;22.58;17.70;;;;;;;-3.71;100.00;95915.84;5095688;28;24438;-71
2023/01/27 03:00:44;;;;;;;22.00;17.17;;;;;;;-3.51;100.00;95919.13;5091398;28;24438;-71
2023/01/27 03:03:10;;;;;;;23.08;18.35;;;;;;;-3.52;100.00;95906.47;5086446;28;24464;-71
2023/01/27 03:05:37;;;;;;;23.55;17.88;;;;;;;-3.52;100.00;95902.25;5098540;28;24437;-72
2023/01/27 03:08:03;;;;;;;24.23;18.20;;;;;;;-3.71;100.00;95904.06;5095242;28;24429;-72
2023/01/27 03:10:30;;;;;;;23.20;17.92;;;;;;;-3.56;100.00;95904.78;5097204;28;24454;-71
2023/01/27 03:12:56;;;;;;;20.30;17.15;;;;;;;-3.41;100.00;95909.78;5088530;28;24457;-71
2023/01/27 03:18:11;;;;;;;21.63;16.70;;;;;;;-3.27;100.00;95909.69;5085919;28;24586;-71
2023/01/27 03:20:37;;;;;;;19.42;15.18;;;;;;;-2.96;100.00;95923.81;5091557;28;24834;-73
2023/01/27 03:23:04;;;;;;;17.27;14.70;;;;;;;-3.06;100.00;95924.75;5099448;28;24445;-71
2023/01/27 03:25:30;;;;;;;17.53;14.43;;;;;;;-3.17;100.00;95922.28;5100076;28;24471;-71
2023/01/27 03:27:57;;;;;;;18.58;14.77;;;;;;;-3.15;100.00;95922.28;5094123;28;24788;-71
2023/01/27 03:30:23;;;;;;;17.80;14.32;;;;;;;-2.91;100.00;95916.19;5101417;28;24517;-71
2023/01/27 03:32:50;;;;;;;21.15;15.10;;;;;;;-3.00;100.00;95921.34;5094870;28;24445;-71
2023/01/27 03:35:18;;;;;;;17.65;15.02;;;;;;;-3.04;100.00;95922.19;5104950;28;24433;-73
2023/01/27 03:46:17;;;;;;;17.55;14.88;;;;;;;-3.39;100.00;95914.84;5103652;28;24468;-72
2023/01/27 03:48:44;;;;;;;19.33;15.27;;;;;;;-3.44;100.00;95912.34;5098589;28;24487;-72
2023/01/27 03:51:12;;;;;;;17.25;14.10;;;;;;;-3.36;100.00;95914.81;5089427;28;24452;-72
2023/01/27 03:53:38;;;;;;;19.27;14.75;;;;;;;-3.37;100.00;95919.06;5094299;28;24449;-73
2023/01/27 03:56:05;;;;;;;18.92;14.70;;;;;;;-3.38;100.00;95914.81;5093496;28;24441;-72
2023/01/27 03:58:34;;;;;;;18.85;14.20;;;;;;;-3.52;100.00;95912.38;5092715;28;24462;-73
2023/01/27 04:01:03;;;;;;;16.35;13.90;;;;;;;-3.54;100.00;95920.84;5090527;28;24425;-72
2023/01/27 04:09:03;;;;;;;14.38;12.75;;;;;;;-3.32;100.00;95940.13;5095951;28;24570;-72
2023/01/27 04:14:14;;;;;;;14.88;12.68;;;;;;;-3.25;100.00;95936.69;5086878;28;24534;-73
2023/01/27 04:16:41;;;;;;;16.45;12.77;;;;;;;-3.21;100.00;95937.50;5091887;28;24434;-71
2023/01/27 04:19:10;;;;;;;17.73;12.52;;;;;;;-3.06;100.00;95945.00;5098837;28;24478;-72
2023/01/27 04:21:38;;;;;;;14.93;13.20;;;;;;;-3.11;100.00;95948.44;5093946;28;24441;-73
2023/01/27 04:24:07;;;;;;;16.25;12.55;;;;;;;-3.29;100.00;95940.09;5084374;28;24438;-73
2023/01/27 04:26:35;;;;;;;12.77;11.52;;;;;;;-3.16;100.00;95943.38;5098883;28;24551;-73
2023/01/27 04:29:02;;;;;;;16.52;12.57;;;;;;;-3.30;100.00;95937.56;5101442;28;24466;-71
2023/01/27 04:31:29;;;;;;;13.40;12.00;;;;;;;-3.35;100.00;95935.06;5081798;28;24453;-72
2023/01/27 04:33:55;;;;;;;17.00;12.93;;;;;;;-3.52;100.00;95929.25;5105902;28;24437;-73
2023/01/27 04:36:22;;;;;;;21.85;12.07;;;;;;;-3.46;100.00;95944.41;5095328;28;24461;-73
2023/01/27 04:38:50;;;;;;;13.40;12.00;;;;;;;-3.54;100.00;95936.88;5101582;28;24439;-73
2023/01/27 04:41:16;;;;;;;16.63;12.45;;;;;;;-3.45;100.00;95938.50;5107291;28;24804;-73
2023/01/27 04:43:43;;;;;;;13.93;12.40;;;;;;;-3.51;100.00;95941.06;5091762;28;24813;-72
2023/01/27 04:46:09;;;;;;;14.00;12.50;;;;;;;-3.44;100.00;95937.66;5104400;28;24440;-73
2023/01/27 04:48:35;;;;;;;16.42;13.20;;;;;;;-3.51;100.00;95949.50;5098517;28;24511;-73
2023/01/27 04:51:02;;;;;;;14.02;12.45;;;;;;;-3.54;100.00;95944.47;5094175;28;24446;-71
2023/01/27 04:53:28;;;;;;;14.30;12.57;;;;;;;-3.39;100.00;95950.28;5099418;28;24444;-71
2023/01/27 04:56:02;;;;;;;13.45;12.05;;;;;;;-3.35;100.00;95942.66;5095061;28;24435;-73
2023/01/27 04:58:29;;;;;;;14.07;11.70;;;;;;;-3.24;100.00;95940.06;5097879;28;24431;-71
2023/01/27 05:00:55;;;;;;;12.55;11.25;;;;;;;-3.17;100.00;95951.84;5094012;28;24438;-71
2023/01/27 05:03:22;;;;;;;13.80;12.35;;;;;;;-3.25;100.00;95946.00;5100760;28;24440;-71
2023/01/27 05:05:48;;;;;;;13.95;11.35;;;;;;;-3.33;100.00;95948.56;5095472;28;24435;-72
2023/01/27 05:08:15;;;;;;;14.17;12.37;;;;;;;-3.46;100.00;95952.00;5101081;28;24445;-77
2023/01/27 05:10:43;;;;;;;18.70;12.85;;;;;;;-3.48;100.00;95944.44;5095848;28;24462;-73
2023/01/27 05:13:11;;;;;;;14.93;12.93;;;;;;;-3.33;100.00;95946.03;5101371;28;25050;-73
2023/01/27 05:15:37;;;;;;;13.90;12.40;;;;;;;-3.43;100.00;95942.72;5095704;28;24437;-74
2023/01/27 05:18:04;;;;;;;15.45;12.93;;;;;;;-3.35;100.00;95954.47;5100191;28;24433;-74
2023/01/27 05:20:30;;;;;;;13.57;12.18;;;;;;;-3.33;100.00;95943.50;5098573;28;24441;-74
2023/01/27 05:23:34;;;;;;;15.10;12.83;;;;;;;-3.29;100.00;95946.88;5101652;28;24515;-73
2023/01/27 05:25:44;;;;;;;15.93;12.90;;;;;;;-3.39;100.00;95935.94;5101098;28;24449;-74
2023/01/27 05:28:12;;;;;;;16.90;14.13;;;;;;;-3.28;100.00;95943.47;5102552;28;24436;-74
2023/01/27 05:30:38;;;;;;;14.50;13.00;;;;;;;-3.36;100.00;95937.63;5100869;28;24472;-74
2023/01/27 05:33:06;;;;;;;15.07;13.43;;;;;;;-3.25;100.00;95934.16;5089819;28;24450;-74
2023/01/27 05:35:35;;;;;;;15.43;13.03;;;;;;;-3.25;100.00;95946.81;5096549;28;24453;-72
2023/01/27 05:38:01;;;;;;;15.87;14.27;;;;;;;-3.20;100.00;95946.78;5095653;28;24516;-73
2023/01/27 05:40:28;;;;;;;16.27;13.73;;;;;;;-3.00;100.00;95949.22;5098387;28;24975;-74
2023/01/27 05:42:54;;;;;;;19.55;15.18;;;;;;;-3.27;100.00;95938.38;5102678;28;24437;-73
2023/01/27 05:45:22;;;;;;;17.25;15.52;;;;;;;-3.22;100.00;95949.34;5096441;28;24971;-74
2023/01/27 05:47:50;;;;;;;17.10;13.73;;;;;;;-3.26;100.00;95955.28;5099745;28;24433;-74
2023/01/27 05:50:17;;;;;;;19.58;14.75;;;;;;;-2.97;100.00;95956.75;5088739;28;24454;-73
2023/01/27 05:52:44;;;;;;;16.02;14.32;;;;;;;-3.08;100.00;95963.59;5098186;28;24439;-72
2023/01/27 05:55:10;;;;;;;18.27;15.63;;;;;;;-3.22;100.00;95956.94;5093390;28;24442;-74
2023/01/27 05:57:37;;;;;;;17.38;15.45;;;;;;;-3.20;100.00;95954.38;5094435;28;24432;-74
2023/01/27 06:00:04;;;;;;;21.02;17.13;;;;;;;-3.04;100.00;95971.19;5098506;28;24496;-74
2023/01/27 06:02:32;;;;;;;17.45;15.55;;;;;;;-2.72;100.00;95976.00;5094022;28;24433;-74
2023/01/27 06:04:59;;;;;;;20.02;16.20;;;;;;;-2.73;100.00;95970.97;5100700;28;24433;-74
2023/01/27 06:07:25;;;;;;;19.80;16.27;;;;;;;-2.84;100.00;95973.56;5082474;28;24435;-74
2023/01/27 06:09:52;;;;;;;22.83;18.58;;;;;;;-2.89;100.00;95977.84;5094983;28;24426;-73
2023/01/27 06:12:18;;;;;;;21.25;18.88;;;;;;;-3.06;100.00;95982.19;5087319;28;24434;-72
2023/01/27 06:14:44;;;;;;;20.25;17.90;;;;;;;-3.01;100.00;95978.75;5101008;28;24434;-73
2023/01/27 06:17:11;;;;;;;25.50;20.55;;;;;;;-3.12;100.00;95987.28;5092365;28;24433;-74
2023/01/27 06:19:39;;;;;;;23.93;19.70;;;;;;;-3.00;100.00;95982.16;5094171;28;24430;-74
2023/01/27 06:22:05;;;;;;;26.40;20.60;;;;;;;-3.04;100.00;95985.53;5086208;28;24432;-73
2023/01/27 06:24:31;;;;;;;25.70;20.65;;;;;;;-3.02;100.00;95984.69;5094333;28;24426;-74
2023/01/27 06:26:58;;;;;;;26.20;21.45;;;;;;;-2.91;100.00;95979.53;5098855;28;24430;-74
2023/01/27 06:29:24;;;;;;;25.43;21.30;;;;;;;-3.26;100.00;95980.63;5097525;28;24629;-73
2023/01/27 06:31:51;;;;;;;27.55;21.02;;;;;;;-3.32;100.00;95977.28;5093261;28;24454;-73
2023/01/27 06:34:17;;;;;;;25.08;21.23;;;;;;;-3.29;100.00;95979.78;5094389;28;24429;-74
2023/01/27 06:36:45;;;;;;;26.35;21.13;;;;;;;-3.25;100.00;95971.31;5094085;28;24434;-74
2023/01/27 06:39:12;;;;;;;24.53;20.27;;;;;;;-3.31;100.00;95974.72;5096939;28;24991;-73
2023/01/27 06:41:38;;;;;;;28.30;20.95;;;;;;;-3.52;100.00;95975.69;5095474;28;24521;-74
2023/01/27 06:44:05;;;;;;;27.83;21.23;;;;;;;-3.36;100.00;95985.72;5082365;28;24444;-74
2023/01/27 06:46:31;;;;;;;26.15;20.92;;;;;;;-3.27;100.00;95991.56;5097745;28;24437;-71
2023/01/27 06:48:58;;;;;;;29.43;22.80;;;;;;;-3.42;100.00;95986.59;5097982;28;24523;-73
2023/01/27 06:51:24;;;;;;;23.92;20.80;;;;;;;-3.32;100.00;95993.31;5087181;28;24458;-74
2023/01/27 06:53:52;;;;;;;26.15;20.27;;;;;;;-3.34;100.00;95987.38;5097289;28;24498;-73
2023/01/27 06:56:18;;;;;;;24.05;20.58;;;;;;;-3.10;100.00;96001.63;5089287;28;24453;-74
2023/01/27 06:58:45;;;;;;;25.07;19.20;;;;;;;-3.17;100.00;96002.50;5098751;28;24439;-73
2023/01/27 07:01:11;;;;;;;25.98;19.13;;;;;;;-3.02;100.00;96006.66;5091958;28;24465;-72
2023/01/27 07:03:38;;;;;;;30.40;20.98;;;;;;;-3.13;100.00;96006.69;5099860;28;24445;-73
2023/01/27 07:06:05;;;;;;;25.08;19.40;;;;;;;-3.03;100.00;96013.41;5089814;28;24445;-73
2023/01/27 07:08:31;;;;;;;26.02;20.60;;;;;;;-3.12;100.00;96008.38;5089454;28;24429;-74
2023/01/27 07:11:02;;;;;;;25.10;18.83;;;;;;;-2.72;100.00;96018.25;5094961;28;24453;-73
2023/01/27 07:13:28;;;;;;;21.52;18.17;;;;;;;-2.73;100.00;96022.50;5092645;28;25070;-74
2023/01/27 07:15:55;;;;;;;24.70;18.63;;;;;;;-2.64;100.00;96020.75;5096599;28;24805;-74
2023/01/27 07:18:22;;;;;;;23.60;19.42;;;;;;;-2.96;100.00;96016.75;5093663;28;25018;-74
2023/01/27 07:20:49;;;;;;;23.33;17.17;;;;;;;-3.05;100.00;96020.16;5096347;28;24434;-73
2023/01/27 07:23:15;;;;;;;24.50;16.85;;;;;;;-2.96;100.00;96020.13;5094386;28;24998;-74
2023/01/27 07:25:43;;;;;;;23.27;15.63;;;;;;;-3.02;100.00;96037.06;5094822;28;24421;-74
2023/01/27 07:28:11;;;;;;;16.75;12.82;;;;;;;-3.05;100.00;96030.28;5094098;28;24426;-73
2023/01/27 07:30:38;;;;;;;16.38;12.88;;;;;;;-2.92;100.00;96033.63;5099071;28;24438;-74
2023/01/27 07:33:05;;;;;;;16.73;13.48;;;;;;;-3.06;100.00;96041.28;5087763;28;25103;-74
2023/01/27 07:35:31;;;;;;;18.10;14.02;;;;;;;-3.03;100.00;96046.34;5094402;28;24432;-73
2023/01/27 07:37:58;;;;;;;16.88;13.65;;;;;;;-2.85;100.00;96050.47;5094589;28;24438;-74
2023/01/27 07:40:25;;;;;;;16.85;13.55;;;;;;;-2.83;100.00;96053.81;5094750;28;24441;-73
2023/01/27 07:42:51;;;;;;;16.27;14.57;;;;;;;-3.05;100.00;96058.16;5100120;28;24441;-73
2023/01/27 07:45:19;;;;;;;18.38;13.40;;;;;;;-3.13;100.00;96051.47;5094588;28;24430;-73
2023/01/27 07:47:46;;;;;;;16.25;13.80;;;;;;;-2.99;100.00;96054.78;5097686;28;24425;-73
2023/01/27 07:50:12;;;;;;;15.43;12.80;;;;;;;-3.12;100.00;96055.69;5088273;28;24433;-74
2023/01/27 07:52:39;;;;;;;20.35;14.32;;;;;;;-3.12;100.00;96064.13;5093406;28;24457;-72
2023/01/27 07:55:06;;;;;;;16.07;13.27;;;;;;;-2.85;100.00;96067.38;5093123;28;24433;-73
2023/01/27 07:57:33;;;;;;;17.05;13.82;;;;;;;-2.79;100.00;96062.25;5093510;28;24482;-74
2023/01/27 07:59:59;;;;;;;15.35;13.57;;;;;;;-2.79;100.00;96069.84;5097551;28;24433;-74
2023/01/27 08:02:27;;;;;;;17.92;13.23;;;;;;;-2.77;100.00;96071.53;5092013;28;24959;-74
2023/01/27 08:04:54;;;;;;;16.58;14.40;;;;;;;-2.81;100.00;96076.66;5098894;28;24437;-73
2023/01/27 08:07:21;;;;;;;16.83;12.77;;;;;;;-2.76;100.00;96062.22;5082867;28;24422;-74
2023/01/27 08:09:48;;;;;;;13.07;11.32;;;;;;;-2.70;100.00;96065.59;5098466;28;24438;-73
2023/01/27 08:12:15;;;;;;;17.07;11.97;;;;;;;-2.82;100.00;96065.63;5087598;28;24900;-74
2023/01/27 08:14:41;;;;;;;14.75;11.80;;;;;;;-2.72;100.00;96062.19;5098349;28;24435;-74
2023/01/27 08:17:08;;;;;;;13.55;12.15;;;;;;;-2.43;100.00;96066.22;5092671;28;24429;-73
2023/01/27 08:19:35;;;;;;;15.93;12.95;;;;;;;-2.63;100.00;96065.53;5090494;28;24437;-74
2023/01/27 08:22:02;;;;;;;13.98;12.38;;;;;;;-2.75;100.00;96063.91;5100506;28;24448;-73
2023/01/27 08:24:28;;;;;;;12.95;11.18;;;;;;;-2.74;100.00;96070.69;5097143;28;24441;-74
2023/01/27 08:26:55;;;;;;;11.73;10.48;;;;;;;-2.65;100.00;96085.81;5101285;28;24437;-74
2023/01/27 08:29:22;;;;;;;13.90;11.00;;;;;;;-2.77;100.00;96081.69;5099513;28;24971;-74
2023/01/27 08:31:49;;;;;;;13.70;10.63;;;;;;;-2.66;100.00;96078.25;5094826;28;24462;-73
2023/01/27 08:34:15;;;;;;;16.45;12.25;;;;;;;-2.65;100.00;96080.75;5097097;28;24440;-74
2023/01/27 08:36:43;;;;;;;13.32;11.93;;;;;;;-2.58;100.00;96082.41;5099662;28;24437;-73
2023/01/27 08:39:10;;;;;;;15.77;12.35;;;;;;;-2.63;100.00;96088.34;5099004;28;24434;-74
2023/01/27 08:41:37;;;;;;;13.55;11.77;;;;;;;-2.74;100.00;96076.59;5101097;28;24433;-73
2023/01/27 08:44:04;;;;;;;16.80;12.35;;;;;;;-2.53;100.00;96082.38;5099937;28;24437;-74
2023/01/27 08:46:30;;;;;;;15.68;13.00;;;;;;;-2.51;100.00;96088.28;5101545;28;24426;-73
2023/01/27 08:48:57;;;;;;;16.15;13.20;;;;;;;-2.62;100.00;96090.03;5096952;28;24427;-73
2023/01/27 08:51:23;;;;;;;16.23;12.57;;;;;;;-2.49;100.00;96096.69;5088709;28;24442;-74
2023/01/27 08:53:51;;;;;;;14.60;13.20;;;;;;;-2.49;100.00;96100.06;5100562;28;24434;-73
2023/01/27 08:56:18;;;;;;;16.10;13.57;;;;;;;-2.42;100.00;96097.50;5090303;28;24429;-74
2023/01/27 08:58:46;;;;;;;19.15;13.43;;;;;;;-2.58;100.00;96101.84;5100232;28;24438;-73
2023/01/27 09:01:13;;;;;;;15.25;13.05;;;;;;;-2.66;100.00;96098.53;5092630;28;24545;-74
2023/01/27 09:03:39;;;;;;;14.27;12.32;;;;;;;-2.74;100.00;96089.28;5100025;28;25010;-73
2023/01/27 09:06:08;;;;;;;14.65;12.73;;;;;;;-2.83;100.00;96101.16;5094445;28;24976;-74
2023/01/27 09:08:35;;;;;;;12.20;10.95;;;;;;;-2.58;100.00;96102.69;5093064;28;24525;-73
2023/01/27 09:11:10;;;;;;;12.60;11.30;;;;;;;-2.59;100.00;96100.19;5095654;28;24429;-74
2023/01/27 09:13:36;;;;;;;13.63;10.52;;;;;;;-2.68;100.00;96101.06;5088270;28;24445;-74
2023/01/27 09:16:03;;;;;;;13.40;11.13;;;;;;;-2.76;100.00;96093.50;5097303;28;24440;-74
2023/01/27 09:18:30;;;;;;;15.70;12.03;;;;;;;-2.76;100.00;96085.88;5097385;28;24532;-73
2023/01/27 09:20:56;;;;;;;13.68;12.27;;;;;;;-2.43;100.00;96089.06;5092985;28;24446;-74
2023/01/27 09:23:23;;;;;;;14.45;12.95;;;;;;;-2.42;100.00;96098.34;5098597;28;24784;-74
2023/01/27 09:25:49;;;;;;;17.13;13.38;;;;;;;-2.56;100.00;96103.53;5089738;28;24434;-73
2023/01/27 09:28:17;;;;;;;16.02;13.07;;;;;;;-2.73;100.00;96093.47;5099218;28;24432;-72
2023/01/27 09:30:45;;;;;;;15.98;13.50;;;;;;;-2.39;100.00;96097.50;5099818;28;24433;-73
2023/01/27 09:33:12;;;;;;;19.77;15.00;;;;;;;-2.40;100.00;96098.34;5089706;28;24490;-74
2023/01/27 09:35:44;;;;;;;15.10;13.27;;;;;;;-2.64;100.00;96101.88;5098471;28;24437;-73
2023/01/27 09:38:14;;;;;;;16.48;13.20;;;;;;;-2.63;100.00;96104.41;5092361;28;24442;-73
2023/01/27 09:41:03;;;;;;;18.70;13.57;;;;;;;-2.63;100.00;96103.56;5101532;28;24430;-73
2023/01/27 09:43:47;;;;;;;16.23;14.35;;;;;;;-2.42;100.00;96102.59;5095012;28;24454;-73
2023/01/27 09:46:29;;;;;;;15.17;13.57;;;;;;;-2.46;100.00;96111.91;5095966;28;24430;-74
2023/01/27 09:49:22;;;;;;;18.38;14.32;;;;;;;-2.24;100.00;96102.44;5098449;28;24431;-73
2023/01/27 09:52:02;;;;;;;17.97;14.17;;;;;;;-2.50;100.00;96105.16;5085439;28;24546;-74
2023/01/27 09:54:52;;;;;;;17.63;14.20;;;;;;;-2.22;100.00;96113.44;5100368;28;24452;-73
2023/01/27 09:57:31;;;;;;;18.30;15.07;;;;;;;-2.38;100.00;96112.69;5092234;28;24432;-73
2023/01/27 10:00:13;;;;;;;16.38;14.68;;;;;;;-2.79;100.00;96107.88;5099974;28;24437;-74
2023/01/27 10:03:17;;;;;;;15.97;13.80;;;;;;;-2.68;100.00;96101.88;5097255;28;24430;-74
2023/01/27 10:06:22;;;;;;;17.20;14.32;;;;;;;-2.46;100.00;96106.84;5029724;28;24578;-74
2023/01/27 10:09:34;;;;;;;20.92;15.82;;;;;;;-2.59;100.00;96112.84;5081579;28;24435;-74
2023/01/27 10:12:14;;;;;;;21.13;15.23;;;;;;;-2.60;100.00;96101.84;5092213;28;24452;-72
2023/01/27 10:14:51;;;;;;;20.92;15.30;;;;;;;-2.74;100.00;96112.09;5099008;28;24999;-73
2023/01/27 10:17:37;;;;;;;22.83;14.75;;;;;;;-2.83;100.00;96106.22;5089122;28;24827;-73
2023/01/27 10:20:23;;;;;;;16.98;15.10;;;;;;;-2.65;100.00;96107.81;5080976;28;24445;-74
2023/01/27 10:23:03;;;;;;;17.08;14.70;;;;;;;-2.67;100.00;96105.25;5090622;28;24984;-72
2023/01/27 10:25:44;;;;;;;18.70;14.45;;;;;;;-2.59;100.00;96112.84;5097841;28;24490;-73
2023/01/27 10:28:13;;;;;;;17.80;15.07;;;;;;;-2.39;100.00;96112.72;5094909;28;24437;-74
2023/01/27 10:30:46;;;;;;;18.92;15.38;;;;;;;-2.20;100.00;96119.34;5101653;28;24425;-72
2023/01/27 10:33:17;;;;;;;22.75;16.30;;;;;;;-2.20;100.00;96115.09;5089355;28;24463;-73
2023/01/27 10:35:51;;;;;;;20.20;15.40;;;;;;;-2.33;100.00;96108.44;5097140;28;24941;-73
2023/01/27 10:38:32;;;;;;;20.88;17.23;;;;;;;-2.11;100.00;96108.25;5091133;28;24525;-73
2023/01/27 10:41:06;;;;;;;20.63;16.63;;;;;;;-1.99;100.00;96098.88;5101429;28;24433;-73
2023/01/27 10:43:42;;;;;;;18.17;15.98;;;;;;;-2.32;100.00;96107.59;5090477;28;24438;-73
2023/01/27 10:46:16;;;;;;;18.52;15.05;;;;;;;-2.35;100.00;96105.06;5094232;28;25085;-74
2023/01/27 10:48:48;;;;;;;18.33;15.32;;;;;;;-2.54;100.00;96106.03;5094030;28;24435;-73
2023/01/27 10:51:20;;;;;;;16.65;14.93;;;;;;;-2.55;100.00;96101.84;5088902;28;24870;-73
2023/01/27 10:53:56;;;;;;;18.67;14.93;;;;;;;-2.64;100.00;96101.88;5096368;28;25047;-72
2023/01/27 10:56:31;;;;;;;16.02;13.95;;;;;;;-2.37;100.00;96103.38;5088984;28;24529;-73
2023/01/27 10:59:04;;;;;;;19.80;15.03;;;;;;;-2.38;100.00;96094.09;5101863;28;24506;-74
2023/01/27 11:01:35;;;;;;;19.08;14.32;;;;;;;-2.36;100.00;96100.00;5088977;28;24434;-74
2023/01/27 11:04:10;;;;;;;18.60;14.40;;;;;;;-2.26;100.00;96104.19;5102855;28;24441;-73
2023/01/27 11:06:39;;;;;;;15.27;13.35;;;;;;;-2.18;100.00;96107.50;5085837;28;24487;-74
2023/01/27 11:09:13;;;;;;;16.83;13.77;;;;;;;-2.47;100.00;96107.69;5098168;28;24449;-73
2023/01/27 11:11:45;;;;;;;15.23;13.63;;;;;;;-2.55;100.00;96109.44;5088314;28;24438;-73
2023/01/27 11:14:16;;;;;;;16.70;14.65;;;;;;;-1.98;100.00;96114.94;5095779;28;24861;-73
2023/01/27 11:16:47;;;;;;;17.73;14.63;;;;;;;-2.21;100.00;96123.56;5093674;28;24825;-72
2023/01/27 11:19:23;;;;;;;16.50;14.68;;;;;;;-2.31;100.00;96100.81;5098819;28;24886;-74
2023/01/27 11:21:53;;;;;;;16.80;15.00;;;;;;;-2.37;100.00;96101.72;5096274;28;24438;-74
2023/01/27 11:24:25;;;;;;;23.05;16.65;;;;;;;-2.06;100.00;96106.53;5091277;28;24816;-73
2023/01/27 11:27:00;;;;;;;21.90;17.58;;;;;;;-2.07;100.00;96108.25;5097232;28;25027;-74
2023/01/27 11:29:35;;;;;;;19.92;16.98;;;;;;;-2.15;100.00;96111.69;5094265;28;24437;-73
2023/01/27 11:32:11;;;;;;;21.95;17.27;;;;;;;-2.22;100.00;96105.84;5101196;28;24457;-74
2023/01/27 11:34:44;;;;;;;24.92;17.70;;;;;;;-2.37;100.00;96106.78;5088440;28;24434;-73
2023/01/27 11:37:19;;;;;;;21.98;18.05;;;;;;;-2.40;100.00;96106.81;5088582;28;24437;-74
2023/01/27 11:39:46;;;;;;;20.60;17.45;;;;;;;-2.47;100.00;96100.09;5090931;28;24430;-72
2023/01/27 11:42:13;;;;;;;23.25;19.27;;;;;;;-2.51;100.00;96100.97;5097548;28;24425;-74
2023/01/27 11:44:40;;;;;;;23.10;18.25;;;;;;;-2.62;100.00;96102.72;5093184;28;24438;-73
2023/01/27 11:47:08;;;;;;;20.10;17.58;;;;;;;-2.37;100.00;96105.91;5084625;28;24591;-74
2023/01/27 11:49:39;;;;;;;19.70;17.60;;;;;;;-2.40;100.00;96109.34;5095893;28;24484;-74